Time;durP1;ratioP1;P1;durP2;ratioP2;P2;SDS_P1;SDS_P2;PMS_P1;PMS_P2;Temp;Humidity;BMP_temperature;BMP_pressure;BME280_temperature;BME280_humidity;BME280_pressure;Samples;Min_cycle;Max_cycle;Signal;HPM_P1;HPM_P2
2021/03/11 00:00:47;;;;;;;65.68;44.72;;;6.10;99.90;;;;;;5030569;28;20132;-74
2021/03/11 00:03:15;;;;;;;75.65;55.15;;;6.10;99.90;;;;;;5026675;28;20049;-74
2021/03/11 00:05:41;;;;;;;70.50;43.70;;;6.10;99.90;;;;;;5044689;28;20080;-74
2021/03/11 00:08:07;;;;;;;82.30;50.75;;;6.10;99.90;;;;;;5045957;28;20080;-74
2021/03/11 00:10:35;;;;;;;79.03;49.95;;;6.10;99.90;;;;;;5043966;28;20102;-74
2021/03/11 00:13:00;;;;;;;78.68;46.10;;;6.10;99.90;;;;;;5046977;28;20045;-73
2021/03/11 00:15:26;;;;;;;85.85;47.17;;;6.20;99.90;;;;;;5027881;28;20513;-74
2021/03/11 00:17:53;;;;;;;70.40;44.15;;;6.10;99.90;;;;;;5026030;28;20046;-73
2021/03/11 00:20:27;;;;;;;77.00;48.90;;;6.20;99.90;;;;;;5027684;28;20437;-74
2021/03/11 00:22:53;;;;;;;76.78;46.17;;;6.10;99.90;;;;;;5026121;28;20049;-73
2021/03/11 00:25:22;;;;;;;67.63;45.38;;;6.20;99.90;;;;;;5045206;28;20499;-73
2021/03/11 00:27:48;;;;;;;75.70;42.10;;;6.20;99.90;;;;;;5045172;28;20045;-73
2021/03/11 00:30:18;;;;;;;78.10;46.33;;;6.20;99.90;;;;;;5045303;28;20127;-72
2021/03/11 00:32:44;;;;;;;63.28;38.92;;;6.20;99.90;;;;;;5045902;28;20421;-73
2021/03/11 00:35:11;;;;;;;68.30;47.17;;;6.20;99.90;;;;;;5042614;28;20056;-73
2021/03/11 00:37:39;;;;;;;72.00;48.38;;;6.30;99.90;;;;;;5045210;28;20052;-73
2021/03/11 00:40:07;;;;;;;66.30;50.13;;;6.20;99.90;;;;;;5029146;28;20080;-73
2021/03/11 00:42:33;;;;;;;59.55;43.10;;;6.30;99.90;;;;;;5025549;28;20049;-72
2021/03/11 00:44:58;;;;;;;74.32;48.38;;;6.30;99.90;;;;;;5029278;28;20141;-73
2021/03/11 00:47:24;;;;;;;67.63;43.92;;;6.40;99.90;;;;;;5026863;28;20053;-73
2021/03/11 00:49:50;;;;;;;68.18;49.17;;;6.30;99.90;;;;;;5030685;28;20038;-71
2021/03/11 00:52:17;;;;;;;73.38;43.63;;;6.30;99.90;;;;;;5025625;28;20049;-73
2021/03/11 00:54:42;;;;;;;75.35;47.05;;;6.30;99.90;;;;;;5033141;28;20052;-73
2021/03/11 00:57:08;;;;;;;59.25;39.55;;;6.30;99.90;;;;;;5025479;28;20509;-72
2021/03/11 00:59:34;;;;;;;71.15;42.15;;;6.40;99.90;;;;;;5033077;28;20107;-74
2021/03/11 01:02:00;;;;;;;57.88;39.88;;;6.30;99.90;;;;;;5027984;28;20103;-72
2021/03/11 01:04:26;;;;;;;54.63;36.80;;;6.40;99.90;;;;;;5048008;28;20536;-73
2021/03/11 01:06:52;;;;;;;61.78;38.45;;;6.40;99.90;;;;;;5047814;28;20300;-72
2021/03/11 01:09:17;;;;;;;63.00;39.63;;;6.40;99.90;;;;;;5043747;28;20037;-72
2021/03/11 01:11:43;;;;;;;63.20;42.85;;;6.50;99.90;;;;;;5031350;28;20047;-71
2021/03/11 01:14:09;;;;;;;59.60;39.97;;;6.40;99.90;;;;;;5024430;28;20037;-72
2021/03/11 01:16:35;;;;;;;71.55;39.53;;;6.50;99.90;;;;;;5031231;28;20040;-72
2021/03/11 01:19:00;;;;;;;60.33;40.30;;;6.50;99.90;;;;;;5025862;28;20063;-72
2021/03/11 01:21:26;;;;;;;65.43;41.53;;;6.40;99.90;;;;;;5047216;28;20077;-71
2021/03/11 01:23:52;;;;;;;55.60;35.78;;;6.50;99.90;;;;;;5043427;28;20405;-71
2021/03/11 01:26:17;;;;;;;64.00;39.80;;;6.40;99.90;;;;;;5031363;28;20127;-71
2021/03/11 01:28:43;;;;;;;55.97;32.50;;;6.40;99.90;;;;;;5042354;28;20105;-70
2021/03/11 01:31:09;;;;;;;53.70;38.28;;;6.50;99.90;;;;;;5048399;28;20041;-71
2021/03/11 01:33:34;;;;;;;57.40;37.00;;;6.50;99.90;;;;;;5029954;28;20444;-72
2021/03/11 01:36:01;;;;;;;60.05;36.83;;;6.50;99.90;;;;;;5048137;28;20561;-71
2021/03/11 01:38:26;;;;;;;62.70;39.22;;;6.50;99.90;;;;;;5043373;28;20049;-71
2021/03/11 01:40:55;;;;;;;44.05;31.20;;;6.50;99.90;;;;;;5048374;28;20114;-69
2021/03/11 01:43:21;;;;;;;56.10;34.50;;;6.50;99.90;;;;;;5038858;28;20041;-71
2021/03/11 01:45:47;;;;;;;62.88;41.58;;;6.50;99.90;;;;;;5047574;28;20106;-72
2021/03/11 01:48:13;;;;;;;48.90;32.85;;;6.50;99.90;;;;;;5038065;28;20045;-71
2021/03/11 01:50:39;;;;;;;44.08;32.78;;;6.50;99.90;;;;;;5045548;28;20451;-71
2021/03/11 01:53:05;;;;;;;43.03;32.92;;;6.60;99.90;;;;;;5048095;28;20068;-71
2021/03/11 01:55:32;;;;;;;50.38;32.22;;;6.50;99.90;;;;;;5040048;28;20489;-71
2021/03/11 01:57:58;;;;;;;51.90;34.25;;;6.60;99.90;;;;;;5035136;28;20049;-70
2021/03/11 02:00:24;;;;;;;53.75;33.50;;;6.60;99.90;;;;;;5047750;28;20505;-70
2021/03/11 02:02:50;;;;;;;53.20;37.42;;;6.60;99.90;;;;;;5042941;28;20294;-70
2021/03/11 02:05:18;;;;;;;51.55;33.47;;;6.60;99.90;;;;;;5044615;28;20068;-70
2021/03/11 02:07:44;;;;;;;48.00;34.42;;;6.70;99.90;;;;;;5043943;28;20611;-69
2021/03/11 02:10:12;;;;;;;59.17;39.15;;;6.70;99.90;;;;;;5042784;28;20048;-70
2021/03/11 02:13:00;;;;;;;57.53;34.90;;;6.70;99.90;;;;;;5046472;28;20076;-69
2021/03/11 02:15:31;;;;;;;55.65;40.08;;;6.70;99.90;;;;;;5046850;28;20124;-70
2021/03/11 02:18:07;;;;;;;48.28;33.72;;;6.70;99.90;;;;;;5043505;28;20033;-69
2021/03/11 02:21:05;;;;;;;53.80;37.42;;;6.80;99.90;;;;;;5044597;28;20075;-71
2021/03/11 02:24:02;;;;;;;45.15;32.03;;;6.80;99.90;;;;;;5021618;28;20052;-69
2021/03/11 02:26:55;;;;;;;45.00;32.05;;;6.90;99.90;;;;;;5027925;28;20041;-70
2021/03/11 02:29:22;;;;;;;44.53;31.30;;;6.90;99.90;;;;;;5037577;28;20045;-69
2021/03/11 02:31:48;;;;;;;42.95;28.50;;;6.90;99.90;;;;;;5047749;28;20304;-70
2021/03/11 02:34:20;;;;;;;40.45;34.03;;;7.00;99.90;;;;;;5041772;28;20384;-70
2021/03/11 02:36:50;;;;;;;43.53;34.07;;;7.00;99.90;;;;;;5047190;28;20051;-70
2021/03/11 02:39:20;;;;;;;40.17;31.58;;;7.00;99.90;;;;;;5034107;28;20049;-69
2021/03/11 02:41:47;;;;;;;44.13;31.75;;;7.00;99.90;;;;;;5029077;28;20081;-70
2021/03/11 02:44:13;;;;;;;37.83;31.35;;;7.10;99.90;;;;;;5035081;28;20046;-70
2021/03/11 02:46:40;;;;;;;50.70;37.08;;;7.10;99.90;;;;;;5028094;28;20046;-70
2021/03/11 02:49:06;;;;;;;48.60;37.35;;;7.10;99.90;;;;;;5044766;28;20045;-69
2021/03/11 02:51:33;;;;;;;49.47;39.33;;;7.20;99.90;;;;;;5046700;28;20053;-69
2021/03/11 02:53:59;;;;;;;43.45;35.40;;;7.20;99.90;;;;;;5045572;28;20493;-71
2021/03/11 02:56:25;;;;;;;49.22;32.60;;;7.30;99.90;;;;;;5047204;28;20106;-69
2021/03/11 02:58:53;;;;;;;46.50;33.03;;;7.30;99.90;;;;;;5035048;28;20049;-69
2021/03/11 03:01:21;;;;;;;58.85;36.95;;;7.30;99.90;;;;;;5026686;28;20482;-72
2021/03/11 03:03:48;;;;;;;44.60;32.83;;;7.30;99.90;;;;;;5034368;28;20041;-69
2021/03/11 03:06:16;;;;;;;49.92;39.13;;;7.30;99.90;;;;;;5025692;28;20413;-69
2021/03/11 03:08:42;;;;;;;46.28;31.90;;;7.40;99.90;;;;;;5037851;28;20411;-70
2021/03/11 03:11:10;;;;;;;52.75;40.58;;;7.40;99.90;;;;;;5026688;28;20454;-71
2021/03/11 03:13:37;;;;;;;48.42;36.28;;;7.40;99.90;;;;;;5037905;28;20045;-69
2021/03/11 03:16:04;;;;;;;44.92;36.10;;;7.40;99.90;;;;;;5027015;28;20053;-69
2021/03/11 03:18:30;;;;;;;56.15;34.05;;;7.50;99.90;;;;;;5039212;28;20132;-69
2021/03/11 03:20:57;;;;;;;42.05;32.03;;;7.50;99.90;;;;;;5025312;28;20052;-70
2021/03/11 03:23:25;;;;;;;44.53;37.47;;;7.60;99.90;;;;;;5038152;28;20128;-69
2021/03/11 03:25:51;;;;;;;45.00;31.33;;;7.60;99.90;;;;;;5026002;28;20052;-69
2021/03/11 03:28:17;;;;;;;54.17;36.13;;;7.60;99.90;;;;;;5042727;28;20382;-70
2021/03/11 03:30:45;;;;;;;53.05;39.72;;;7.60;99.90;;;;;;5026211;28;20561;-69
2021/03/11 03:33:11;;;;;;;56.40;40.67;;;7.60;99.90;;;;;;5042698;28;20075;-69
2021/03/11 03:35:37;;;;;;;54.55;35.53;;;7.60;99.90;;;;;;5025949;28;20048;-70
2021/03/11 03:38:03;;;;;;;51.05;35.80;;;7.60;99.90;;;;;;5040618;28;20476;-71
2021/03/11 03:40:29;;;;;;;62.65;40.97;;;7.70;99.90;;;;;;5046394;28;20045;-69
2021/03/11 03:43:00;;;;;;;50.83;41.47;;;7.60;99.90;;;;;;5045190;28;20087;-69
2021/03/11 03:45:29;;;;;;;49.50;38.85;;;7.70;99.90;;;;;;5025763;28;20053;-70
2021/03/11 03:48:00;;;;;;;44.95;33.95;;;7.70;99.90;;;;;;5044190;28;20045;-69
2021/03/11 03:50:27;;;;;;;55.63;37.13;;;7.70;99.90;;;;;;5025075;28;20057;-69
2021/03/11 03:52:54;;;;;;;53.83;38.60;;;7.70;99.90;;;;;;5043902;28;20444;-69
2021/03/11 03:55:21;;;;;;;51.33;34.47;;;7.70;99.90;;;;;;5045874;28;20121;-69
2021/03/11 03:57:50;;;;;;;46.78;37.55;;;7.80;99.90;;;;;;5045544;28;20045;-69
2021/03/11 04:00:17;;;;;;;42.63;32.33;;;7.80;99.90;;;;;;5027610;28;20125;-69
2021/03/11 04:02:44;;;;;;;49.47;37.08;;;7.80;99.90;;;;;;5040927;28;20143;-70
2021/03/11 04:05:11;;;;;;;51.53;37.25;;;7.90;99.90;;;;;;5031434;28;20075;-70
2021/03/11 04:07:38;;;;;;;50.17;36.25;;;7.90;99.90;;;;;;5045325;28;20037;-71
2021/03/11 04:10:08;;;;;;;49.20;36.25;;;7.90;99.90;;;;;;5044302;28;20049;-71
2021/03/11 04:12:35;;;;;;;43.70;36.20;;;7.90;99.90;;;;;;5045570;28;20041;-69
2021/03/11 04:15:03;;;;;;;41.35;34.40;;;7.90;99.90;;;;;;5044874;28;20048;-71
2021/03/11 04:17:30;;;;;;;41.00;33.80;;;7.90;99.90;;;;;;5046374;28;20041;-69
2021/03/11 04:19:59;;;;;;;51.67;36.78;;;8.00;99.90;;;;;;5044377;28;20118;-72
2021/03/11 04:22:25;;;;;;;41.83;30.33;;;8.00;99.90;;;;;;5044774;28;20041;-70
2021/03/11 04:24:51;;;;;;;43.13;33.10;;;8.00;99.90;;;;;;5037104;28;20229;-69
2021/03/11 04:27:17;;;;;;;43.85;34.65;;;8.10;99.90;;;;;;5045618;28;20049;-70
2021/03/11 04:29:43;;;;;;;37.80;31.65;;;8.10;99.90;;;;;;5033028;28;20095;-69
2021/03/11 04:32:10;;;;;;;37.53;31.73;;;8.10;99.90;;;;;;5046353;28;20048;-71
2021/03/11 04:34:35;;;;;;;35.88;28.58;;;8.10;99.90;;;;;;5032189;28;20418;-70
2021/03/11 04:37:02;;;;;;;32.50;26.65;;;8.10;99.90;;;;;;5027448;28;20041;-69
2021/03/11 04:39:30;;;;;;;31.15;25.38;;;8.10;99.90;;;;;;5030301;28;20111;-68
2021/03/11 04:41:55;;;;;;;35.58;29.02;;;8.20;99.90;;;;;;5049374;28;20076;-70
2021/03/11 04:44:24;;;;;;;28.13;23.85;;;8.20;99.90;;;;;;5041301;28;20446;-70
2021/03/11 04:46:52;;;;;;;30.42;27.20;;;8.30;99.90;;;;;;5049679;28;20384;-71
2021/03/11 04:49:18;;;;;;;31.77;24.35;;;8.20;99.90;;;;;;5040581;28;20068;-70
2021/03/11 04:51:45;;;;;;;29.85;26.60;;;8.30;99.90;;;;;;5049282;28;20060;-70
2021/03/11 04:54:12;;;;;;;33.67;25.92;;;8.30;99.90;;;;;;5042312;28;20109;-70
2021/03/11 04:56:40;;;;;;;30.98;24.98;;;8.30;99.90;;;;;;5048120;28;20485;-70
2021/03/11 04:59:06;;;;;;;32.70;26.10;;;8.40;99.90;;;;;;5026093;28;20037;-70
2021/03/11 05:01:39;;;;;;;32.72;26.25;;;8.40;99.90;;;;;;5046631;28;20481;-69
2021/03/11 05:04:06;;;;;;;28.83;24.42;;;8.30;99.90;;;;;;5043926;28;20045;-68
2021/03/11 05:06:31;;;;;;;27.75;22.40;;;8.40;99.90;;;;;;5046303;28;20057;-69
2021/03/11 05:08:57;;;;;;;28.45;24.90;;;8.40;99.90;;;;;;5045401;28;20504;-69
2021/03/11 05:11:23;;;;;;;31.83;25.63;;;8.40;99.90;;;;;;5029595;28;20072;-67
2021/03/11 05:13:49;;;;;;;26.50;22.60;;;8.50;99.90;;;;;;5030111;28;20099;-70
2021/03/11 05:16:14;;;;;;;28.52;24.50;;;8.50;99.90;;;;;;5047742;28;20049;-70
2021/03/11 05:18:42;;;;;;;31.73;24.67;;;8.50;99.90;;;;;;5043110;28;20041;-71
2021/03/11 05:21:08;;;;;;;29.60;25.13;;;8.50;99.90;;;;;;5041109;28;20052;-69
2021/03/11 05:23:34;;;;;;;27.63;20.10;;;8.50;99.90;;;;;;5044990;28;20048;-71
2021/03/11 05:25:59;;;;;;;30.60;22.60;;;8.50;99.90;;;;;;5040297;28;20041;-69
2021/03/11 05:28:26;;;;;;;29.42;22.70;;;8.50;99.90;;;;;;5047805;28;20449;-69
2021/03/11 05:30:51;;;;;;;32.35;24.40;;;8.50;99.90;;;;;;5037289;28;20300;-70
2021/03/11 05:33:17;;;;;;;23.92;19.80;;;8.60;99.90;;;;;;5030536;28;20041;-69
2021/03/11 05:35:43;;;;;;;27.02;19.15;;;8.50;99.90;;;;;;5038232;28;20171;-70
2021/03/11 05:38:09;;;;;;;33.28;19.40;;;8.60;99.90;;;;;;5048101;28;20049;-69
2021/03/11 05:40:36;;;;;;;32.45;18.13;;;8.70;99.90;;;;;;5038690;28;20063;-69
2021/03/11 05:43:06;;;;;;;25.98;18.85;;;8.70;99.90;;;;;;5048681;28;20076;-71
2021/03/11 05:45:33;;;;;;;23.75;15.63;;;8.80;99.90;;;;;;5039517;28;20519;-69
2021/03/11 05:47:59;;;;;;;25.85;17.45;;;8.80;99.90;;;;;;5047279;28;20041;-70
2021/03/11 05:50:25;;;;;;;23.85;17.15;;;8.80;99.90;;;;;;5038311;28;20137;-71
2021/03/11 05:52:53;;;;;;;21.92;16.75;;;8.80;99.90;;;;;;5048320;28;20069;-71
2021/03/11 05:55:19;;;;;;;20.20;14.13;;;8.80;99.90;;;;;;5042679;28;20493;-70
2021/03/11 05:57:46;;;;;;;23.67;14.23;;;8.80;99.90;;;;;;5047257;28;20045;-69
2021/03/11 06:00:15;;;;;;;19.80;13.18;;;8.80;99.90;;;;;;5043490;28;20037;-70
2021/03/11 06:02:43;;;;;;;20.10;12.70;;;8.90;99.90;;;;;;5047704;28;20444;-69
2021/03/11 06:05:12;;;;;;;24.65;13.07;;;8.90;99.90;;;;;;5024896;28;20095;-70
2021/03/11 06:07:41;;;;;;;19.50;11.45;;;8.90;99.90;;;;;;5048071;28;20409;-68
2021/03/11 06:10:09;;;;;;;22.30;11.13;;;8.80;99.90;;;;;;5043910;28;20045;-70
2021/03/11 06:12:36;;;;;;;27.83;11.45;;;8.90;99.90;;;;;;5046882;28;20053;-70
2021/03/11 06:15:18;;;;;;;19.08;11.10;;;8.90;99.90;;;;;;5044650;28;20040;-70
2021/03/11 06:17:44;;;;;;;22.08;12.48;;;8.90;99.90;;;;;;5047335;28;20518;-69
2021/03/11 06:20:11;;;;;;;22.42;11.10;;;8.90;99.90;;;;;;5044044;28;20045;-71
2021/03/11 06:22:38;;;;;;;22.70;12.25;;;8.90;99.90;;;;;;5047132;28;20041;-69
2021/03/11 06:25:06;;;;;;;17.85;9.10;;;8.90;99.90;;;;;;5043675;28;20053;-70
2021/03/11 06:27:32;;;;;;;20.55;6.97;;;9.00;99.90;;;;;;5047703;28;20485;-69
2021/03/11 06:29:58;;;;;;;11.25;6.70;;;9.10;99.90;;;;;;5045042;28;20215;-70
2021/03/11 06:32:24;;;;;;;14.85;6.57;;;9.20;99.90;;;;;;5046404;28;20120;-69
2021/03/11 06:34:51;;;;;;;12.30;7.20;;;9.10;99.90;;;;;;5042982;28;20051;-69
2021/03/11 06:37:40;;;;;;;16.25;8.43;;;9.00;99.90;;;;;;5029866;28;20041;-69
2021/03/11 06:40:32;;;;;;;19.58;12.25;;;8.90;99.90;;;;;;5036372;28;20059;-70
2021/03/11 06:43:12;;;;;;;18.17;11.10;;;8.80;99.90;;;;;;5004296;28;20059;-70
2021/03/11 06:45:38;;;;;;;21.85;11.52;;;8.80;99.90;;;;;;5027901;28;20081;-69
2021/03/11 06:48:26;;;;;;;23.33;10.77;;;8.80;99.90;;;;;;5026364;28;20052;-70
2021/03/11 06:50:53;;;;;;;29.90;9.98;;;8.80;99.90;;;;;;5032678;28;20362;-69
2021/03/11 06:53:18;;;;;;;31.65;6.93;;;8.90;99.90;;;;;;5047434;28;20051;-70
2021/03/11 06:55:44;;;;;;;29.10;6.50;;;9.10;99.90;;;;;;5031702;28;20490;-70
2021/03/11 06:58:18;;;;;;;28.42;6.10;;;9.10;99.90;;;;;;4992901;28;20068;-69
2021/03/11 07:00:46;;;;;;;27.38;6.55;;;9.10;99.90;;;;;;5043411;28;20052;-70
2021/03/11 07:03:12;;;;;;;35.58;8.23;;;9.10;99.90;;;;;;5046496;28;20049;-71
2021/03/11 07:05:46;;;;;;;24.85;5.60;;;9.20;99.90;;;;;;5029849;28;20060;-70
2021/03/11 07:08:14;;;;;;;28.17;6.25;;;9.30;99.90;;;;;;5037381;28;20128;-70
2021/03/11 07:10:42;;;;;;;28.90;5.80;;;9.30;99.90;;;;;;5034154;28;20124;-69
2021/03/11 07:13:08;;;;;;;40.10;6.55;;;9.40;99.90;;;;;;5038776;28;20056;-70
2021/03/11 07:15:35;;;;;;;36.35;5.95;;;9.30;99.90;;;;;;5036864;28;20103;-70
2021/03/11 07:18:05;;;;;;;34.75;7.38;;;9.30;99.90;;;;;;5037901;28;20277;-69
2021/03/11 07:20:34;;;;;;;34.78;7.13;;;9.40;99.90;;;;;;5043512;28;20041;-70
2021/03/11 07:23:10;;;;;;;32.30;5.78;;;9.40;99.90;;;;;;5042960;28;20037;-69
2021/03/11 07:25:38;;;;;;;30.02;8.90;;;9.50;99.90;;;;;;5033527;28;20133;-69
2021/03/11 07:28:05;;;;;;;43.05;10.05;;;9.60;99.90;;;;;;5037239;28;20025;-71
2021/03/11 07:30:47;;;;;;;42.42;9.70;;;9.60;99.90;;;;;;5046168;28;20045;-69
2021/03/11 07:33:15;;;;;;;44.42;8.85;;;9.50;99.90;;;;;;5039804;28;20048;-70
2021/03/11 07:35:41;;;;;;;53.33;10.48;;;9.40;99.90;;;;;;5031717;28;20095;-70
2021/03/11 07:38:11;;;;;;;48.58;10.63;;;9.50;99.90;;;;;;5034977;28;20060;-70
2021/03/11 07:40:37;;;;;;;50.72;8.98;;;9.60;99.90;;;;;;5044252;28;20041;-71
2021/03/11 07:43:04;;;;;;;47.65;9.80;;;9.60;99.90;;;;;;5045479;28;20102;-70
2021/03/11 07:45:30;;;;;;;39.80;9.55;;;9.50;99.90;;;;;;5043981;28;20071;-70
2021/03/11 07:47:57;;;;;;;46.25;9.40;;;9.50;99.90;;;;;;5044913;28;20550;-70
2021/03/11 07:50:22;;;;;;;51.47;9.02;;;9.50;99.90;;;;;;5033953;28;20526;-69
2021/03/11 07:52:48;;;;;;;48.47;11.20;;;9.70;99.90;;;;;;5043447;28;20100;-69
2021/03/11 07:55:14;;;;;;;48.40;10.68;;;9.70;99.90;;;;;;5029740;28;20515;-70
2021/03/11 07:57:46;;;;;;;48.33;9.23;;;9.80;99.90;;;;;;5041878;28;20448;-69
2021/03/11 08:00:15;;;;;;;48.73;10.67;;;9.90;99.90;;;;;;5043351;28;20045;-70
2021/03/11 08:02:57;;;;;;;51.05;10.93;;;10.00;99.90;;;;;;5040504;28;20072;-70
2021/03/11 08:05:29;;;;;;;53.53;12.05;;;10.00;99.90;;;;;;5032615;28;20065;-70
2021/03/11 08:08:30;;;;;;;48.67;9.93;;;10.20;99.90;;;;;;5006331;28;20159;-70
2021/03/11 08:10:58;;;;;;;54.67;12.43;;;10.30;99.90;;;;;;5000842;28;20073;-68
2021/03/11 08:13:28;;;;;;;48.95;11.65;;;10.10;99.90;;;;;;5008961;28;20046;-71
2021/03/11 08:15:54;;;;;;;68.75;14.32;;;10.30;99.90;;;;;;5006399;28;20050;-71
2021/03/11 08:18:32;;;;;;;53.50;11.27;;;10.10;99.90;;;;;;5006920;28;20132;-71
2021/03/11 08:21:03;;;;;;;59.80;13.27;;;10.10;99.90;;;;;;5011868;28;20042;-68
2021/03/11 08:23:33;;;;;;;61.72;11.65;;;10.10;99.90;;;;;;4974971;28;20429;-71
2021/03/11 08:26:00;;;;;;;58.25;13.27;;;10.10;99.90;;;;;;5005081;28;20065;-70
2021/03/11 08:28:25;;;;;;;60.92;11.82;;;10.10;99.90;;;;;;5007080;28;20065;-70
2021/03/11 08:30:53;;;;;;;52.63;11.65;;;10.10;99.90;;;;;;5007958;28;20474;-70
2021/03/11 08:33:19;;;;;;;65.00;12.98;;;10.10;99.90;;;;;;4996274;28;20519;-70
2021/03/11 08:35:46;;;;;;;72.03;17.30;;;10.20;99.90;;;;;;5008015;28;20044;-70
2021/03/11 08:38:24;;;;;;;70.78;13.80;;;10.20;99.90;;;;;;5007662;28;20050;-70
2021/03/11 08:41:10;;;;;;;58.88;13.50;;;10.20;99.90;;;;;;5006241;28;20136;-70
2021/03/11 08:43:39;;;;;;;84.38;18.02;;;10.20;99.90;;;;;;4990433;28;20046;-70
2021/03/11 08:46:10;;;;;;;77.18;15.77;;;10.30;99.90;;;;;;5007463;28;20042;-69
2021/03/11 08:49:00;;;;;;;73.55;14.88;;;10.30;99.90;;;;;;4971882;28;20053;-70
2021/03/11 08:51:25;;;;;;;76.82;16.70;;;10.40;99.90;;;;;;5008863;28;20089;-72
2021/03/11 08:53:55;;;;;;;63.55;16.58;;;10.70;99.90;;;;;;5008270;28;20406;-70
2021/03/11 08:56:21;;;;;;;75.18;16.77;;;10.50;99.90;;;;;;5009233;28;20057;-70
2021/03/11 08:58:49;;;;;;;67.50;16.33;;;10.50;99.90;;;;;;5001865;28;20383;-70
2021/03/11 09:01:36;;;;;;;71.10;16.80;;;10.50;99.90;;;;;;5007732;28;20624;-69
2021/03/11 09:04:20;;;;;;;78.35;14.90;;;10.40;99.90;;;;;;5007479;28;20045;-70
2021/03/11 09:06:57;;;;;;;58.50;14.07;;;10.30;99.90;;;;;;5008273;28;20078;-70
2021/03/11 09:09:48;;;;;;;70.35;16.45;;;10.20;99.90;;;;;;5008370;28;20073;-69
2021/03/11 09:12:16;;;;;;;78.55;16.15;;;10.30;99.90;;;;;;5007928;28;20494;-70
2021/03/11 09:14:50;;;;;;;75.95;16.48;;;10.30;99.90;;;;;;5007970;28;20113;-70
2021/03/11 09:17:21;;;;;;;80.40;19.23;;;10.20;99.90;;;;;;5005134;28;20129;-71
2021/03/11 09:20:00;;;;;;;70.85;13.65;;;10.20;99.90;;;;;;5013146;28;20038;-71
2021/03/11 09:22:34;;;;;;;74.15;16.15;;;10.20;99.90;;;;;;5004338;28;20046;-70
2021/03/11 09:25:10;;;;;;;54.95;14.05;;;10.10;99.90;;;;;;4989518;28;20042;-70
2021/03/11 09:27:38;;;;;;;69.43;11.60;;;10.10;99.90;;;;;;4995630;28;20686;-70
2021/03/11 09:30:10;;;;;;;59.10;12.77;;;10.10;99.90;;;;;;5007595;28;20064;-71
2021/03/11 09:32:37;;;;;;;66.07;15.27;;;10.10;99.90;;;;;;4991129;28;20049;-70
2021/03/11 09:35:07;;;;;;;61.05;14.25;;;10.10;99.90;;;;;;5007009;28;20053;-70
2021/03/11 09:37:45;;;;;;;70.20;13.93;;;10.00;99.90;;;;;;5007786;28;20525;-69
2021/03/11 09:40:13;;;;;;;74.88;14.95;;;9.90;99.90;;;;;;5007660;28;20104;-70
2021/03/11 09:43:13;;;;;;;64.50;14.85;;;9.80;99.90;;;;;;4999479;28;20407;-70
2021/03/11 09:45:52;;;;;;;69.47;13.95;;;9.80;99.90;;;;;;4989032;28;20157;-71
2021/03/11 09:48:28;;;;;;;75.00;15.10;;;9.70;99.90;;;;;;5006076;28;20065;-72
2021/03/11 09:51:00;;;;;;;82.10;20.73;;;9.60;99.90;;;;;;5008265;28;20049;-70
2021/03/11 09:53:36;;;;;;;82.30;16.40;;;9.50;99.90;;;;;;5007103;28;20056;-69
2021/03/11 09:56:04;;;;;;;76.82;15.07;;;9.40;99.90;;;;;;5002198;28;20132;-71
2021/03/11 09:58:30;;;;;;;59.13;15.85;;;9.40;99.90;;;;;;5007851;28;20045;-71
2021/03/11 10:00:56;;;;;;;69.95;16.92;;;9.50;99.90;;;;;;5005774;28;20058;-71
2021/03/11 10:03:27;;;;;;;82.88;17.10;;;9.30;99.90;;;;;;5003759;28;20038;-71
2021/03/11 10:06:01;;;;;;;82.55;19.88;;;9.30;99.90;;;;;;5003559;28;20380;-70
2021/03/11 10:08:40;;;;;;;69.65;14.50;;;9.30;99.90;;;;;;5004863;28;20240;-69
2021/03/11 10:11:05;;;;;;;81.43;20.15;;;9.30;99.90;;;;;;5007838;28;20045;-70
2021/03/11 10:13:37;;;;;;;84.53;18.10;;;9.30;99.90;;;;;;5007264;28;20418;-71
2021/03/11 10:16:04;;;;;;;88.15;17.55;;;9.30;99.90;;;;;;5007026;28;20644;-71
2021/03/11 10:18:30;;;;;;;67.95;15.35;;;9.20;99.90;;;;;;5006110;28;20057;-70
2021/03/11 10:21:00;;;;;;;70.50;16.85;;;9.20;99.90;;;;;;4989949;28;20046;-70
2021/03/11 10:23:26;;;;;;;80.30;13.70;;;9.00;99.90;;;;;;5005490;28;20046;-70
2021/03/11 10:26:11;;;;;;;61.78;15.95;;;8.90;99.90;;;;;;5004336;28;20911;-70
2021/03/11 10:28:40;;;;;;;67.95;17.45;;;8.80;99.90;;;;;;4978412;28;20212;-70
2021/03/11 10:31:07;;;;;;;69.35;15.38;;;8.80;99.90;;;;;;5000672;28;20061;-70
2021/03/11 10:33:33;;;;;;;89.90;23.63;;;8.70;99.90;;;;;;5001959;28;20117;-70
2021/03/11 10:36:19;;;;;;;88.97;18.38;;;8.70;99.90;;;;;;5002392;28;20499;-69
2021/03/11 10:39:11;;;;;;;91.50;17.13;;;8.60;99.90;;;;;;5004717;28;20041;-71
2021/03/11 10:41:39;;;;;;;70.78;13.20;;;8.50;99.90;;;;;;5006014;28;20933;-68
2021/03/11 10:44:16;;;;;;;74.90;17.70;;;8.40;99.90;;;;;;5006971;28;20536;-71
2021/03/11 10:46:43;;;;;;;77.82;16.60;;;8.50;99.90;;;;;;4988549;28;20868;-71
2021/03/11 10:49:11;;;;;;;64.38;14.00;;;8.50;99.90;;;;;;5004351;28;20502;-70
2021/03/11 10:51:37;;;;;;;70.07;17.00;;;8.50;99.90;;;;;;5006258;28;20052;-71
2021/03/11 10:54:04;;;;;;;66.43;13.73;;;8.60;99.90;;;;;;5005985;28;20124;-70
2021/03/11 10:56:31;;;;;;;69.18;13.52;;;8.60;99.90;;;;;;4972685;28;20395;-70
2021/03/11 10:59:05;;;;;;;72.15;15.98;;;8.60;99.90;;;;;;4980434;28;20322;-70
2021/03/11 11:01:31;;;;;;;77.60;14.88;;;8.60;99.90;;;;;;4991584;28;20050;-70
2021/03/11 11:04:01;;;;;;;70.22;13.25;;;8.60;99.90;;;;;;5000646;28;20061;-70
2021/03/11 11:06:29;;;;;;;91.18;16.40;;;8.60;99.90;;;;;;4998034;28;20545;-70
2021/03/11 11:08:55;;;;;;;61.35;14.15;;;8.60;99.90;;;;;;5001720;28;20101;-71
2021/03/11 11:11:22;;;;;;;63.13;12.77;;;8.60;99.90;;;;;;4984834;28;20042;-70
2021/03/11 11:13:48;;;;;;;66.00;14.75;;;8.60;99.90;;;;;;5005956;28;20046;-72
2021/03/11 11:16:14;;;;;;;65.13;13.45;;;8.60;99.90;;;;;;5006091;28;20038;-70
2021/03/11 11:18:41;;;;;;;72.43;13.20;;;8.60;99.90;;;;;;4999913;28;20430;-70
2021/03/11 11:21:08;;;;;;;61.17;16.02;;;8.60;99.90;;;;;;4997405;28;20042;-70
2021/03/11 11:23:33;;;;;;;55.63;13.73;;;8.70;99.90;;;;;;5003215;28;20108;-69
2021/03/11 11:25:59;;;;;;;53.67;13.38;;;8.70;99.90;;;;;;5005986;28;20482;-71
2021/03/11 11:28:25;;;;;;;62.33;14.90;;;8.70;99.90;;;;;;5005614;28;20061;-69
2021/03/11 11:30:51;;;;;;;67.38;11.80;;;8.70;99.90;;;;;;5004001;28;20048;-71
2021/03/11 11:33:17;;;;;;;72.95;11.43;;;8.70;99.90;;;;;;5004798;28;20073;-72
2021/03/11 11:35:44;;;;;;;54.40;10.93;;;8.70;99.90;;;;;;5004589;28;20053;-72
2021/03/11 11:38:09;;;;;;;39.88;8.93;;;8.70;99.90;;;;;;5005406;28;20054;-70
2021/03/11 11:40:35;;;;;;;50.10;10.45;;;8.90;99.90;;;;;;5001140;28;20037;-70
2021/03/11 11:43:01;;;;;;;46.47;10.48;;;8.90;99.90;;;;;;5006441;28;20096;-71
2021/03/11 11:45:27;;;;;;;71.50;12.88;;;8.90;99.90;;;;;;5004077;28;20053;-70
2021/03/11 11:47:53;;;;;;;60.40;10.18;;;8.80;99.90;;;;;;5004838;28;20049;-71
2021/03/11 11:50:19;;;;;;;46.35;8.32;;;8.90;99.90;;;;;;5005528;28;20045;-71
2021/03/11 11:52:44;;;;;;;42.40;9.30;;;8.90;99.90;;;;;;5005384;28;20049;-71
2021/03/11 11:55:11;;;;;;;56.28;10.07;;;9.00;99.90;;;;;;5005047;28;20050;-70
2021/03/11 11:57:38;;;;;;;55.58;9.68;;;9.00;99.90;;;;;;5005431;28;20405;-71
2021/03/11 12:00:07;;;;;;;56.10;9.85;;;9.20;99.90;;;;;;5005144;28;20050;-71
2021/03/11 12:02:33;;;;;;;46.58;8.30;;;9.30;99.90;;;;;;5004415;28;20053;-71
2021/03/11 12:04:58;;;;;;;47.10;7.50;;;9.40;99.90;;;;;;5005245;28;20042;-70
2021/03/11 12:07:24;;;;;;;51.88;9.52;;;9.40;99.90;;;;;;5004390;28;20391;-70
2021/03/11 12:09:50;;;;;;;46.50;8.30;;;9.40;99.90;;;;;;5004275;28;20057;-71
2021/03/11 12:12:15;;;;;;;38.38;7.03;;;9.40;99.90;;;;;;5004338;28;20458;-72
2021/03/11 12:14:42;;;;;;;51.08;6.55;;;9.50;99.90;;;;;;5005089;28;20418;-71
2021/03/11 12:17:08;;;;;;;32.17;6.93;;;9.50;99.90;;;;;;5005032;28;20072;-71
2021/03/11 12:19:34;;;;;;;50.13;7.82;;;9.50;99.90;;;;;;4995155;28;20486;-71
2021/03/11 12:21:59;;;;;;;29.90;6.20;;;9.50;99.90;;;;;;5005841;28;20057;-71
2021/03/11 12:24:25;;;;;;;34.78;6.00;;;9.50;99.90;;;;;;5004735;28;20471;-71
2021/03/11 12:26:51;;;;;;;32.72;6.40;;;9.60;99.90;;;;;;5005333;28;20081;-71
2021/03/11 12:29:17;;;;;;;32.60;6.85;;;9.60;99.90;;;;;;5004717;28;20056;-71
2021/03/11 12:31:47;;;;;;;35.03;6.72;;;9.80;99.90;;;;;;5004407;28;20050;-71
2021/03/11 12:34:13;;;;;;;40.08;7.50;;;9.90;99.90;;;;;;5004224;28;20046;-71
2021/03/11 12:36:39;;;;;;;28.02;4.82;;;10.10;99.90;;;;;;5002996;28;20046;-72
2021/03/11 12:39:06;;;;;;;33.90;6.63;;;10.20;99.90;;;;;;4987714;28;20050;-70
2021/03/11 12:41:32;;;;;;;35.80;5.90;;;10.40;99.90;;;;;;5003984;28;20568;-71
2021/03/11 12:43:58;;;;;;;39.28;7.32;;;10.40;99.90;;;;;;5001002;28;20042;-70
2021/03/11 12:46:27;;;;;;;34.40;6.10;;;10.30;99.90;;;;;;5004696;28;20132;-70